• Join FlightAware (Why Join?)
  • Login
  • US Flag 
08:34AM EDT


 

Airport Tracker/Info


-or-


 

Live Flight TrackerFlight Track Log ✈ WES8682 ✈ 18-Jun-2013 ✈ TJSJ / SJU - TQPF / AXA

Flight Track Log - Related Links

Times and Time Zones

All times are in EDT time to prevent confusion due to time zone crossing. See the WES8682 flight status page for this flight to view local times or setup timezone preferences in your user account.

Time Position Orientation Groundspeed Altitude Reporting Facility
EDT Latitude Longitude Course Direction KTS MPH feet Rate Location/Type
02:29PM 18.4333 -65.9833 62° Northeast 100 115 1,100  Level San Juan Center
02:30PM 18.4500 -65.9500 62° Northeast 130 150 2,100 960 Climbing San Juan Center
02:31PM 18.4667 -65.9000 71° East 150 173 3,100 960 Climbing San Juan Center
02:32PM 18.4833 -65.8667 62° Northeast 130 150 4,100 960 Climbing San Juan Center
02:33PM 18.5167 -65.8333 43° Northeast 140 161 5,100 960 Climbing San Juan Center
02:34PM 18.5333 -65.8000 62° Northeast 150 173 6,100 1,020 Climbing San Juan Center
02:35PM 18.5500 -65.7500 71° East 160 184 7,200 1,080 Climbing San Juan Center
02:36PM 18.5667 -65.7167 62° Northeast 160 184 8,300 1,080 Climbing San Juan Center
02:37PM 18.5833 -65.6833 62° Northeast 150 173 9,400 840 Climbing San Juan Center
02:38PM 18.6000 -65.6500 62° Northeast 150 173 10,000 360 Climbing San Juan Center
02:39PM 18.5833 -65.5833 105° East 180 207 10,200 480 Climbing San Juan Center
02:40PM 18.5833 -65.5333 90° East 170 196 11,000 360 Climbing San Juan Center
02:41PM 18.5833 -65.4833 90° East 190 219 11,000  Level San Juan Center
02:42PM 18.5667 -65.4333 109° East 200 230 11,000  Level San Juan Center
02:43PM 18.5667 -65.3667 90° East 200 230 11,000  Level San Juan Center
02:44PM 18.5667 -65.3000 90° East 200 230 11,000  Level San Juan Center
02:45PM 18.5500 -65.2500 109° East 210 242 11,000  Level San Juan Center
02:46PM 18.5500 -65.1833 90° East 200 230 11,000  Level San Juan Center
02:47PM 18.5500 -65.1333 90° East 210 242 11,000  Level San Juan Center
02:48PM 18.5333 -65.0667 105° East 200 230 11,000  Level San Juan Center
02:49PM 18.5333 -65.0167 90° East 200 230 11,000  Level San Juan Center
02:50PM 18.5333 -64.9500 90° East 210 242 11,000  Level San Juan Center
02:51PM 18.5167 -64.8833 105° East 200 230 11,000  Level San Juan Center
02:52PM 18.5167 -64.8333 90° East 200 230 11,000  Level San Juan Center
02:53PM 18.5000 -64.7667 105° East 200 230 11,000  Level San Juan Center
02:54PM 18.5000 -64.7167 90° East 200 230 11,000  Level San Juan Center
02:55PM 18.5000 -64.6500 90° East 200 230 11,000  Level San Juan Center
02:56PM 18.4833 -64.5833 105° East 210 242 11,000  Level San Juan Center
02:57PM 18.4833 -64.5333 90° East 200 230 11,000  Level San Juan Center
02:58PM 18.4667 -64.4833 109° East 200 230 11,000  Level San Juan Center
02:59PM 18.4667 -64.4167 90° East 190 219 11,000  Level San Juan Center
03:01PM 18.4500 -64.3000 99° East 180 207 11,000  Level San Juan Center
03:02PM 18.4500 -64.2500 90° East 200 230 11,000  Level San Juan Center
03:03PM 18.4500 -64.1833 90° East 210 242 11,000  Level San Juan Center
03:04PM 18.4500 -64.1333 90° East 200 230 11,000  Level San Juan Center
03:05PM 18.4333 -64.0667 105° East 200 230 11,000  Level San Juan Center
03:06PM 18.4333 -64.0167 90° East 190 219 11,000  Level San Juan Center
03:07PM 18.4167 -63.9500 105° East 200 230 11,000  Level San Juan Center
03:08PM 18.4167 -63.9000 90° East 200 230 11,000  Level San Juan Center
03:09PM 18.4167 -63.8333 90° East 200 230 11,000  Level San Juan Center
03:10PM 18.4000 -63.7667 105° East 220 253 11,000  Level San Juan Center
03:11PM 18.3833 -63.7167 109° East 200 230 11,000  Level San Juan Center
03:12PM 18.3833 -63.6500 90° East 190 219 11,000  Level San Juan Center
03:14PM 18.3555 -63.5566 107° East  Level Estimated
03:21PM 18.2446 -63.1871 107° East  Level Estimated
03:22PM 18.2287 -63.1343 108° East  Level Estimated
03:23PM 18.2128 -63.0816 108° East  Level Estimated
03:24PM 18.2048 -63.0551 108° East  Level Estimated
03:25PM 18.2048 -63.0551 316° Northwest  Level Estimated
03:26PM 18.2048 -63.0551 316° Northwest  Level Estimated
03:27PM 18.2048 -63.0551 316° Northwest  Level Estimated
03:28PM 18.2048 -63.0551 316° Northwest  Level Estimated
03:29PM 18.2048 -63.0551 316° Northwest  Level Estimated
03:30PM 18.2048 -63.0551 316° Northwest  Level Estimated
03:31PM 18.2048 -63.0551 316° Northwest  Level Estimated
03:32PM 18.2048 -63.0551 316° Northwest  Level Estimated
03:33PM 18.2048 -63.0551 316° Northwest  Level Estimated
03:34PM 18.2048 -63.0551 316° Northwest  Level Estimated
03:35PM 18.2048 -63.0551 316° Northwest  Level Estimated
03:36PM 18.2048 -63.0551 316° Northwest  Level Estimated
03:37PM 18.2048 -63.0551 316° Northwest  Level Estimated
03:38PM 18.2048 -63.0551 316° Northwest  Level Estimated
03:39PM 18.2048 -63.0551 316° Northwest  Level Estimated
03:40PM 18.2048 -63.0551 316° Northwest  Level Estimated
03:41PM 18.2048 -63.0551 316° Northwest  Level Estimated
03:42PM 18.2048 -63.0551 316° Northwest  Level Estimated
03:43PM 18.2048 -63.0551 316° Northwest  Level Estimated